Time;durP1;ratioP1;P1;durP2;ratioP2;P2;SDS_P1;SDS_P2;PMS_P1;PMS_P2;Temp;Humidity;BMP_temperature;BMP_pressure;BME280_temperature;BME280_humidity;BME280_pressure;Samples;Min_cycle;Max_cycle;Signal;HPM_P1;HPM_P2
2022/12/05 00:00:00;;;;;;;0.80;0.80;;;;;;;;;;6095944;23;20158;-79
2022/12/05 00:02:26;;;;;;;0.80;0.80;;;;;;;;;;6095120;23;20184;-78
2022/12/05 00:04:52;;;;;;;0.93;0.93;;;;;;;;;;6093182;23;20207;-78
2022/12/05 00:07:18;;;;;;;0.83;0.83;;;;;;;;;;6093161;23;20211;-78
2022/12/05 00:09:44;;;;;;;0.90;0.90;;;;;;;;;;6092877;23;20157;-78
2022/12/05 00:12:10;;;;;;;0.90;0.90;;;;;;;;;;6092227;23;20240;-78
2022/12/05 00:14:36;;;;;;;0.80;0.80;;;;;;;;;;6094106;23;20539;-79
2022/12/05 00:17:02;;;;;;;0.90;0.90;;;;;;;;;;6092740;23;20192;-78
2022/12/05 00:19:28;;;;;;;0.90;0.90;;;;;;;;;;6092836;23;20476;-79
2022/12/05 00:21:56;;;;;;;0.90;0.90;;;;;;;;;;6093275;23;20157;-81
2022/12/05 00:24:22;;;;;;;0.83;0.83;;;;;;;;;;6093256;23;20517;-80
2022/12/05 00:26:48;;;;;;;1.00;1.00;;;;;;;;;;6100903;23;20160;-79
2022/12/05 00:29:14;;;;;;;0.80;0.80;;;;;;;;;;6105244;23;20249;-79
2022/12/05 00:31:40;;;;;;;0.90;0.90;;;;;;;;;;6108699;23;20150;-79
2022/12/05 00:34:06;;;;;;;0.90;0.90;;;;;;;;;;6106715;23;20229;-80
2022/12/05 00:36:34;;;;;;;1.00;1.00;;;;;;;;;;6095908;22;20170;-78
2022/12/05 00:39:01;;;;;;;0.83;0.83;;;;;;;;;;6095405;23;20189;-78
2022/12/05 00:41:28;;;;;;;0.80;0.80;;;;;;;;;;6094281;23;20154;-79
2022/12/05 00:43:54;;;;;;;0.90;0.90;;;;;;;;;;6093770;23;20571;-79
2022/12/05 00:46:22;;;;;;;0.80;0.80;;;;;;;;;;6094425;23;20158;-79
2022/12/05 00:48:48;;;;;;;0.90;0.90;;;;;;;;;;6093249;23;20274;-77
2022/12/05 00:51:23;;;;;;;0.87;0.87;;;;;;;;;;6091910;23;20154;-78
2022/12/05 00:53:49;;;;;;;0.87;0.87;;;;;;;;;;6091334;23;20189;-77
2022/12/05 00:56:18;;;;;;;1.00;1.00;;;;;;;;;;6090904;23;20154;-78
2022/12/05 00:58:44;;;;;;;0.80;0.80;;;;;;;;;;6090927;23;20216;-77
2022/12/05 01:01:15;;;;;;;0.90;0.90;;;;;;;;;;6091675;23;20158;-78
2022/12/05 01:03:41;;;;;;;0.80;0.80;;;;;;;;;;6091780;23;20174;-78
2022/12/05 01:06:08;;;;;;;0.80;0.80;;;;;;;;;;6092446;23;20154;-77
2022/12/05 01:08:35;;;;;;;0.83;0.83;;;;;;;;;;6091103;23;20587;-78
2022/12/05 01:11:01;;;;;;;0.70;0.70;;;;;;;;;;6091408;23;20146;-77
2022/12/05 01:13:27;;;;;;;0.90;0.90;;;;;;;;;;6090294;23;20651;-78
2022/12/05 01:15:53;;;;;;;0.80;0.80;;;;;;;;;;6091237;23;20166;-78
2022/12/05 01:18:20;;;;;;;1.00;1.00;;;;;;;;;;6093590;23;20158;-78
2022/12/05 01:20:46;;;;;;;1.00;1.00;;;;;;;;;;6093382;23;20154;-78
2022/12/05 01:23:12;;;;;;;0.87;0.87;;;;;;;;;;6093288;23;20185;-77
2022/12/05 01:25:40;;;;;;;0.80;0.80;;;;;;;;;;6094004;23;20216;-79
2022/12/05 01:28:06;;;;;;;0.83;0.83;;;;;;;;;;6095538;23;20202;-79
2022/12/05 01:30:32;;;;;;;0.90;0.90;;;;;;;;;;6097234;23;20663;-78
2022/12/05 01:32:58;;;;;;;0.80;0.80;;;;;;;;;;6096806;23;20212;-79
2022/12/05 01:35:25;;;;;;;0.90;0.90;;;;;;;;;;6095460;23;20234;-77
2022/12/05 01:37:51;;;;;;;0.80;0.80;;;;;;;;;;6093644;22;20253;-77
2022/12/05 01:40:17;;;;;;;0.97;0.97;;;;;;;;;;6096211;23;20161;-79
2022/12/05 01:42:43;;;;;;;0.87;0.87;;;;;;;;;;6094660;23;20166;-79
2022/12/05 01:45:22;;;;;;;0.80;0.80;;;;;;;;;;6094816;23;20567;-79
2022/12/05 01:47:48;;;;;;;0.90;0.90;;;;;;;;;;6094818;23;20227;-78
2022/12/05 01:50:14;;;;;;;0.80;0.80;;;;;;;;;;6095050;23;20184;-79
2022/12/05 01:52:40;;;;;;;0.87;0.87;;;;;;;;;;6094341;23;20636;-79
2022/12/05 01:55:08;;;;;;;0.80;0.80;;;;;;;;;;6095880;23;20490;-79
2022/12/05 01:57:34;;;;;;;0.90;0.90;;;;;;;;;;6099785;23;20237;-79
2022/12/05 02:00:02;;;;;;;0.80;0.80;;;;;;;;;;6094670;23;20563;-78
2022/12/05 02:02:29;;;;;;;0.80;0.80;;;;;;;;;;6091479;23;20462;-78
2022/12/05 02:05:07;;;;;;;0.97;0.97;;;;;;;;;;6092409;23;20158;-78
2022/12/05 02:07:34;;;;;;;0.90;0.90;;;;;;;;;;6092790;23;20207;-78
2022/12/05 02:10:00;;;;;;;0.90;0.90;;;;;;;;;;6094393;23;20231;-79
2022/12/05 02:12:26;;;;;;;0.83;0.83;;;;;;;;;;6093463;23;20154;-80
2022/12/05 02:14:58;;;;;;;0.90;0.90;;;;;;;;;;6093602;23;20155;-79
2022/12/05 02:17:34;;;;;;;0.90;0.90;;;;;;;;;;6093699;23;20162;-78
2022/12/05 02:20:21;;;;;;;0.80;0.80;;;;;;;;;;6094763;23;20150;-78
2022/12/05 02:22:56;;;;;;;0.80;0.80;;;;;;;;;;6095180;23;20667;-79
2022/12/05 02:25:34;;;;;;;0.90;0.90;;;;;;;;;;6095448;23;20179;-78
2022/12/05 02:28:13;;;;;;;0.83;0.83;;;;;;;;;;6095385;23;20535;-79
2022/12/05 02:30:59;;;;;;;0.80;0.80;;;;;;;;;;6096809;23;20235;-78
2022/12/05 02:33:34;;;;;;;0.90;0.90;;;;;;;;;;6095141;23;20563;-79
2022/12/05 02:35:59;;;;;;;0.90;0.90;;;;;;;;;;6095141;23;20597;-78
2022/12/05 02:38:43;;;;;;;0.80;0.80;;;;;;;;;;6095126;23;20177;-78
2022/12/05 02:41:22;;;;;;;0.80;0.80;;;;;;;;;;6094610;23;20562;-79
2022/12/05 02:43:54;;;;;;;0.90;0.90;;;;;;;;;;6094439;23;20227;-78
2022/12/05 02:46:24;;;;;;;0.90;0.90;;;;;;;;;;6095590;23;20169;-79
2022/12/05 02:48:54;;;;;;;0.90;0.90;;;;;;;;;;6111118;23;20219;-80
2022/12/05 02:51:21;;;;;;;0.80;0.80;;;;;;;;;;6111683;23;20146;-80
2022/12/05 02:53:48;;;;;;;1.00;1.00;;;;;;;;;;6108464;23;20174;-77
2022/12/05 02:56:15;;;;;;;1.00;1.00;;;;;;;;;;6095202;23;20161;-78
2022/12/05 02:58:46;;;;;;;1.00;1.00;;;;;;;;;;6094664;23;20162;-78
2022/12/05 03:01:12;;;;;;;0.87;0.87;;;;;;;;;;6093677;23;20169;-79
2022/12/05 03:03:38;;;;;;;0.80;0.80;;;;;;;;;;6092695;23;20185;-78
2022/12/05 03:06:07;;;;;;;0.80;0.80;;;;;;;;;;6094365;23;20150;-78
2022/12/05 03:08:44;;;;;;;0.80;0.80;;;;;;;;;;6094198;23;20202;-79
2022/12/05 03:11:10;;;;;;;0.80;0.80;;;;;;;;;;6093838;23;20158;-79
2022/12/05 03:13:48;;;;;;;0.90;0.90;;;;;;;;;;6093906;23;20170;-77
2022/12/05 03:16:27;;;;;;;0.87;0.87;;;;;;;;;;6093424;23;20142;-77
2022/12/05 03:18:55;;;;;;;0.80;0.80;;;;;;;;;;6093453;23;20154;-77
2022/12/05 03:21:27;;;;;;;0.80;0.80;;;;;;;;;;6093835;23;20150;-78
2022/12/05 03:23:56;;;;;;;0.90;0.90;;;;;;;;;;6094233;23;20178;-78
2022/12/05 03:26:21;;;;;;;0.90;0.90;;;;;;;;;;6094786;23;20233;-77
2022/12/05 03:28:57;;;;;;;0.83;0.83;;;;;;;;;;6094569;23;20236;-77
2022/12/05 03:31:32;;;;;;;0.80;0.80;;;;;;;;;;6094809;23;20180;-79
2022/12/05 03:33:58;;;;;;;0.80;0.80;;;;;;;;;;6094985;23;20229;-78
2022/12/05 03:36:28;;;;;;;0.77;0.77;;;;;;;;;;6095063;22;20613;-78
2022/12/05 03:39:10;;;;;;;0.90;0.90;;;;;;;;;;6094977;23;20150;-77
2022/12/05 03:41:54;;;;;;;0.80;0.80;;;;;;;;;;6094475;23;20150;-79
2022/12/05 03:44:25;;;;;;;0.70;0.70;;;;;;;;;;6094521;23;20185;-79
2022/12/05 03:47:00;;;;;;;0.80;0.80;;;;;;;;;;6095292;23;20150;-77
2022/12/05 03:49:30;;;;;;;0.80;0.80;;;;;;;;;;6094586;23;20186;-76
2022/12/05 03:51:59;;;;;;;0.70;0.70;;;;;;;;;;6091853;23;20178;-78
2022/12/05 03:54:27;;;;;;;0.90;0.90;;;;;;;;;;6092112;23;20544;-77
2022/12/05 03:57:05;;;;;;;0.80;0.80;;;;;;;;;;6091828;23;20157;-78
2022/12/05 03:59:46;;;;;;;0.90;0.90;;;;;;;;;;6094308;23;20149;-78
2022/12/05 04:02:22;;;;;;;0.90;0.90;;;;;;;;;;6093844;23;20530;-79
2022/12/05 04:04:52;;;;;;;0.87;0.87;;;;;;;;;;6095229;23;20173;-79
2022/12/05 04:07:19;;;;;;;0.90;0.90;;;;;;;;;;6095423;23;20148;-79
2022/12/05 04:09:48;;;;;;;0.80;0.80;;;;;;;;;;6094455;23;20250;-79
2022/12/05 04:12:19;;;;;;;0.90;0.90;;;;;;;;;;6094582;23;20153;-80
2022/12/05 04:14:47;;;;;;;0.70;0.70;;;;;;;;;;6095338;23;20200;-79
2022/12/05 04:17:13;;;;;;;0.90;0.90;;;;;;;;;;6095409;23;20180;-78
2022/12/05 04:22:26;;;;;;;0.80;0.80;;;;;;;;;;6095003;23;20192;-78
2022/12/05 04:27:38;;;;;;;0.90;0.90;;;;;;;;;;6094818;23;20195;-78
2022/12/05 04:30:07;;;;;;;0.80;0.80;;;;;;;;;;6095231;23;20181;-78
2022/12/05 04:32:48;;;;;;;0.90;0.90;;;;;;;;;;6094164;23;20518;-78
2022/12/05 04:35:22;;;;;;;0.70;0.70;;;;;;;;;;6094710;23;20158;-77
2022/12/05 04:37:50;;;;;;;0.90;0.90;;;;;;;;;;6093534;22;20166;-79
2022/12/05 04:40:32;;;;;;;0.77;0.77;;;;;;;;;;6094235;23;20177;-80
2022/12/05 04:42:58;;;;;;;0.80;0.80;;;;;;;;;;6094182;23;20177;-78
2022/12/05 04:45:25;;;;;;;0.90;0.90;;;;;;;;;;6094144;23;20165;-80
2022/12/05 04:47:55;;;;;;;0.80;0.80;;;;;;;;;;6093457;23;20185;-79
2022/12/05 04:50:22;;;;;;;0.90;0.90;;;;;;;;;;6092922;23;20169;-79
2022/12/05 04:52:50;;;;;;;0.87;0.87;;;;;;;;;;6094970;23;20177;-79
2022/12/05 04:55:19;;;;;;;0.90;0.90;;;;;;;;;;6096148;23;20158;-78
2022/12/05 04:58:07;;;;;;;0.90;0.90;;;;;;;;;;6100903;23;20154;-79
2022/12/05 05:00:35;;;;;;;0.90;0.90;;;;;;;;;;6097104;23;20154;-77
2022/12/05 05:03:05;;;;;;;0.90;0.90;;;;;;;;;;6093424;23;20180;-78
2022/12/05 05:05:31;;;;;;;0.80;0.80;;;;;;;;;;6094070;23;20162;-79
2022/12/05 05:07:57;;;;;;;0.90;0.90;;;;;;;;;;6094296;23;20233;-77
2022/12/05 05:10:46;;;;;;;0.90;0.90;;;;;;;;;;6094144;23;20154;-79
2022/12/05 05:13:12;;;;;;;0.80;0.80;;;;;;;;;;6095063;23;20174;-79
2022/12/05 05:15:38;;;;;;;0.83;0.83;;;;;;;;;;6095992;23;20174;-79
2022/12/05 05:18:04;;;;;;;0.90;0.90;;;;;;;;;;6095764;23;20529;-78
2022/12/05 05:20:30;;;;;;;0.90;0.90;;;;;;;;;;6095204;23;20196;-78
2022/12/05 05:22:56;;;;;;;0.80;0.80;;;;;;;;;;6093849;23;20166;-78
2022/12/05 05:25:23;;;;;;;0.90;0.90;;;;;;;;;;6093761;23;20161;-78
2022/12/05 05:27:50;;;;;;;0.80;0.80;;;;;;;;;;6093105;23;20216;-79
2022/12/05 05:30:17;;;;;;;0.90;0.90;;;;;;;;;;6093808;23;20154;-78
2022/12/05 05:32:43;;;;;;;0.80;0.80;;;;;;;;;;6092702;23;20702;-78
2022/12/05 05:35:10;;;;;;;0.83;0.83;;;;;;;;;;6095250;23;20154;-80
2022/12/05 05:37:36;;;;;;;0.83;0.83;;;;;;;;;;6118124;22;20197;-77
2022/12/05 05:40:02;;;;;;;0.90;0.90;;;;;;;;;;6211016;23;20239;-76
2022/12/05 05:42:28;;;;;;;0.80;0.80;;;;;;;;;;6209483;22;20151;-76
2022/12/05 05:44:54;;;;;;;0.90;0.90;;;;;;;;;;6210227;23;20152;-75
2022/12/05 05:47:20;;;;;;;0.90;0.90;;;;;;;;;;6209944;23;20204;-77
2022/12/05 05:49:46;;;;;;;0.80;0.80;;;;;;;;;;6210353;23;20193;-77
2022/12/05 05:52:12;;;;;;;0.90;0.90;;;;;;;;;;6209655;22;20151;-75
2022/12/05 05:54:38;;;;;;;0.87;0.87;;;;;;;;;;6209977;23;20250;-75
2022/12/05 05:57:04;;;;;;;0.87;0.87;;;;;;;;;;6209843;23;20151;-75
2022/12/05 05:59:30;;;;;;;0.80;0.80;;;;;;;;;;6210009;23;20640;-75
2022/12/05 06:01:56;;;;;;;0.80;0.80;;;;;;;;;;6209604;23;20173;-75
2022/12/05 06:04:22;;;;;;;0.80;0.80;;;;;;;;;;6208764;22;20301;-75
2022/12/05 06:06:48;;;;;;;0.90;0.90;;;;;;;;;;6209882;23;20207;-73
2022/12/05 06:09:14;;;;;;;0.60;0.60;;;;;;;;;;6209604;23;20801;-76
2022/12/05 06:11:40;;;;;;;0.80;0.80;;;;;;;;;;6207890;23;20205;-76
2022/12/05 06:14:05;;;;;;;0.80;0.80;;;;;;;;;;6209344;22;20174;-76
2022/12/05 06:16:31;;;;;;;0.60;0.60;;;;;;;;;;6209356;23;20466;-74
2022/12/05 06:18:58;;;;;;;0.70;0.70;;;;;;;;;;6210080;23;20155;-77
2022/12/05 06:21:24;;;;;;;0.80;0.80;;;;;;;;;;6211289;23;20147;-74
2022/12/05 06:23:51;;;;;;;0.80;0.80;;;;;;;;;;6209287;22;20179;-75
2022/12/05 06:26:18;;;;;;;0.80;0.80;;;;;;;;;;6209555;23;20667;-75
2022/12/05 06:28:44;;;;;;;0.80;0.80;;;;;;;;;;6210007;23;20187;-75
2022/12/05 06:31:11;;;;;;;0.80;0.80;;;;;;;;;;6210935;23;20208;-75
2022/12/05 06:33:37;;;;;;;0.80;0.80;;;;;;;;;;6209530;22;20629;-75
2022/12/05 06:36:13;;;;;;;0.80;0.80;;;;;;;;;;6209850;23;20189;-75
2022/12/05 06:38:40;;;;;;;0.80;0.80;;;;;;;;;;6209225;23;20253;-75
2022/12/05 06:41:06;;;;;;;0.80;0.80;;;;;;;;;;6209641;23;20151;-75
2022/12/05 06:43:32;;;;;;;0.70;0.70;;;;;;;;;;6208648;22;20512;-75
2022/12/05 06:45:58;;;;;;;0.90;0.90;;;;;;;;;;6209190;23;20495;-75
2022/12/05 06:48:24;;;;;;;0.90;0.90;;;;;;;;;;6210042;23;20266;-75
2022/12/05 06:50:51;;;;;;;0.90;0.90;;;;;;;;;;6209485;23;20651;-75
2022/12/05 06:53:18;;;;;;;0.70;0.70;;;;;;;;;;6209084;22;20172;-75
2022/12/05 06:55:44;;;;;;;0.90;0.90;;;;;;;;;;6209685;23;20155;-75
2022/12/05 06:58:10;;;;;;;0.83;0.83;;;;;;;;;;6207789;23;20537;-75
2022/12/05 07:03:20;;;;;;;0.80;0.80;;;;;;;;;;6209158;22;20231;-76
2022/12/05 07:05:46;;;;;;;0.80;0.80;;;;;;;;;;6209752;23;20151;-75
2022/12/05 07:08:12;;;;;;;0.90;0.90;;;;;;;;;;6209445;23;20187;-75
2022/12/05 07:10:38;;;;;;;0.80;0.80;;;;;;;;;;6209243;23;20238;-76
2022/12/05 07:13:04;;;;;;;0.80;0.80;;;;;;;;;;6208565;22;20179;-75
2022/12/05 07:15:30;;;;;;;0.80;0.80;;;;;;;;;;6209704;23;20148;-75
2022/12/05 07:17:56;;;;;;;0.90;0.90;;;;;;;;;;6209696;23;20163;-75
2022/12/05 07:20:22;;;;;;;0.80;0.80;;;;;;;;;;6209180;23;20175;-75
2022/12/05 07:22:48;;;;;;;0.83;0.83;;;;;;;;;;6208904;22;20171;-75
2022/12/05 07:25:14;;;;;;;0.70;0.70;;;;;;;;;;6209220;23;20570;-76
2022/12/05 07:27:40;;;;;;;0.83;0.83;;;;;;;;;;6209525;23;20155;-76
2022/12/05 07:30:06;;;;;;;0.80;0.80;;;;;;;;;;6209279;23;20162;-76
2022/12/05 07:32:33;;;;;;;0.80;0.80;;;;;;;;;;6208840;22;20171;-75
2022/12/05 07:34:59;;;;;;;0.80;0.80;;;;;;;;;;6209441;23;20160;-75
2022/12/05 07:37:25;;;;;;;0.77;0.77;;;;;;;;;;6209069;23;20492;-75
2022/12/05 07:39:52;;;;;;;0.80;0.80;;;;;;;;;;6209508;23;20144;-75
2022/12/05 07:42:18;;;;;;;0.70;0.70;;;;;;;;;;6208789;22;20155;-75
2022/12/05 07:44:44;;;;;;;0.90;0.90;;;;;;;;;;6209139;23;20182;-76
2022/12/05 07:47:10;;;;;;;0.70;0.70;;;;;;;;;;6209365;23;20155;-76
2022/12/05 07:49:36;;;;;;;0.80;0.80;;;;;;;;;;6208984;23;20594;-75
2022/12/05 07:52:02;;;;;;;0.80;0.80;;;;;;;;;;6208750;23;20481;-75
2022/12/05 07:54:28;;;;;;;0.73;0.73;;;;;;;;;;6208859;22;20663;-75
2022/12/05 07:56:54;;;;;;;0.83;0.83;;;;;;;;;;6209170;23;20597;-75
2022/12/05 07:59:20;;;;;;;0.90;0.90;;;;;;;;;;6209193;23;20167;-75
2022/12/05 08:01:46;;;;;;;0.90;0.90;;;;;;;;;;6208913;23;20154;-76
2022/12/05 08:04:12;;;;;;;0.90;0.90;;;;;;;;;;6208409;22;20195;-75
2022/12/05 08:06:38;;;;;;;0.70;0.70;;;;;;;;;;6209245;23;20175;-75
2022/12/05 08:09:04;;;;;;;0.77;0.77;;;;;;;;;;6209307;23;20426;-75
2022/12/05 08:11:34;;;;;;;0.70;0.70;;;;;;;;;;6209250;23;20613;-76
2022/12/05 08:14:00;;;;;;;0.70;0.70;;;;;;;;;;6208475;22;20182;-75
2022/12/05 08:16:27;;;;;;;0.70;0.70;;;;;;;;;;6209170;23;20170;-75
2022/12/05 08:18:54;;;;;;;0.80;0.80;;;;;;;;;;6209135;23;20155;-76
2022/12/05 08:21:20;;;;;;;0.83;0.83;;;;;;;;;;6207337;23;20155;-75
2022/12/05 08:23:46;;;;;;;0.80;0.80;;;;;;;;;;6208267;22;20247;-76
2022/12/05 08:26:12;;;;;;;0.80;0.80;;;;;;;;;;6208965;23;20151;-75
2022/12/05 08:28:39;;;;;;;0.70;0.70;;;;;;;;;;6209799;23;20284;-75
2022/12/05 08:31:06;;;;;;;0.80;0.80;;;;;;;;;;6210153;23;20143;-75
2022/12/05 08:33:32;;;;;;;0.80;0.80;;;;;;;;;;6209416;22;20641;-75
2022/12/05 08:36:00;;;;;;;0.80;0.80;;;;;;;;;;6210491;23;20531;-76
2022/12/05 08:38:26;;;;;;;0.70;0.70;;;;;;;;;;6210446;23;20517;-75
2022/12/05 08:40:52;;;;;;;0.70;0.70;;;;;;;;;;6210223;23;20148;-75
2022/12/05 08:43:18;;;;;;;0.90;0.90;;;;;;;;;;6209385;22;20571;-75
2022/12/05 08:45:51;;;;;;;0.80;0.80;;;;;;;;;;6210265;23;20151;-75
2022/12/05 08:48:17;;;;;;;0.80;0.80;;;;;;;;;;6210185;23;20183;-75
2022/12/05 08:50:43;;;;;;;0.90;0.90;;;;;;;;;;6210357;23;20152;-75
2022/12/05 08:53:09;;;;;;;0.80;0.80;;;;;;;;;;6210723;22;20179;-75
2022/12/05 08:55:35;;;;;;;0.80;0.80;;;;;;;;;;6212650;23;20151;-75
2022/12/05 08:58:01;;;;;;;0.70;0.70;;;;;;;;;;6209794;23;20586;-75
2022/12/05 09:00:27;;;;;;;0.80;0.80;;;;;;;;;;6209727;23;20459;-75
2022/12/05 09:02:53;;;;;;;0.80;0.80;;;;;;;;;;6209763;22;20171;-75
2022/12/05 09:05:19;;;;;;;0.90;0.90;;;;;;;;;;6210483;23;20156;-76
2022/12/05 09:07:45;;;;;;;0.70;0.70;;;;;;;;;;6210417;23;20239;-75
2022/12/05 09:10:11;;;;;;;0.70;0.70;;;;;;;;;;6210170;23;20183;-75
2022/12/05 09:12:37;;;;;;;0.80;0.80;;;;;;;;;;6209202;22;20486;-75
2022/12/05 09:15:06;;;;;;;0.80;0.80;;;;;;;;;;6209496;23;20151;-75
2022/12/05 09:17:33;;;;;;;0.70;0.70;;;;;;;;;;6210150;23;20151;-75
2022/12/05 09:19:59;;;;;;;0.70;0.70;;;;;;;;;;6209885;23;20159;-76
2022/12/05 09:22:25;;;;;;;0.90;0.90;;;;;;;;;;6209514;22;20155;-75
2022/12/05 09:24:51;;;;;;;0.77;0.77;;;;;;;;;;6209874;23;20515;-75
2022/12/05 09:27:17;;;;;;;0.70;0.70;;;;;;;;;;6210017;23;20152;-76
2022/12/05 09:29:43;;;;;;;0.70;0.70;;;;;;;;;;6210061;23;20273;-75
2022/12/05 09:32:09;;;;;;;0.77;0.77;;;;;;;;;;6209192;23;20166;-76
2022/12/05 09:34:36;;;;;;;0.70;0.70;;;;;;;;;;6209742;23;20869;-75
2022/12/05 09:37:03;;;;;;;0.80;0.80;;;;;;;;;;6209917;23;20175;-75
2022/12/05 09:39:29;;;;;;;0.70;0.70;;;;;;;;;;6209183;23;20186;-75
2022/12/05 09:42:04;;;;;;;0.80;0.80;;;;;;;;;;6209784;23;20151;-75
2022/12/05 09:44:40;;;;;;;0.70;0.70;;;;;;;;;;6210022;22;20504;-75
2022/12/05 09:47:25;;;;;;;0.90;0.90;;;;;;;;;;6209845;23;20481;-75
2022/12/05 09:49:54;;;;;;;0.80;0.80;;;;;;;;;;6210101;23;20244;-75
2022/12/05 09:52:46;;;;;;;0.70;0.70;;;;;;;;;;6209241;22;20695;-75
2022/12/05 09:55:17;;;;;;;0.70;0.70;;;;;;;;;;6210656;23;20147;-75
2022/12/05 09:57:49;;;;;;;0.80;0.80;;;;;;;;;;6209890;23;20151;-75
2022/12/05 10:00:16;;;;;;;0.80;0.80;;;;;;;;;;6210062;23;20224;-76
2022/12/05 10:03:02;;;;;;;0.80;0.80;;;;;;;;;;6208914;22;20637;-75
2022/12/05 10:05:43;;;;;;;0.80;0.80;;;;;;;;;;6209332;23;20595;-75
2022/12/05 10:08:16;;;;;;;0.77;0.77;;;;;;;;;;6209808;23;20192;-75
2022/12/05 10:10:41;;;;;;;0.70;0.70;;;;;;;;;;6210004;23;20197;-76
2022/12/05 10:13:13;;;;;;;0.80;0.80;;;;;;;;;;6209464;22;20201;-77
2022/12/05 10:15:42;;;;;;;0.70;0.70;;;;;;;;;;6210420;23;20147;-75
2022/12/05 10:18:08;;;;;;;0.70;0.70;;;;;;;;;;6209613;23;20154;-75
2022/12/05 10:20:54;;;;;;;0.80;0.80;;;;;;;;;;6209381;23;20159;-75
2022/12/05 10:23:20;;;;;;;0.70;0.70;;;;;;;;;;6213831;22;20622;-75
2022/12/05 10:25:47;;;;;;;0.90;0.90;;;;;;;;;;6209599;23;20171;-75
2022/12/05 10:28:34;;;;;;;0.70;0.70;;;;;;;;;;6209964;23;20190;-75
2022/12/05 10:31:02;;;;;;;0.80;0.80;;;;;;;;;;6209529;22;20166;-75
2022/12/05 10:33:33;;;;;;;0.70;0.70;;;;;;;;;;6209214;22;20246;-75
2022/12/05 10:35:58;;;;;;;0.80;0.80;;;;;;;;;;6209622;23;20654;-75
2022/12/05 10:38:31;;;;;;;0.60;0.60;;;;;;;;;;6209404;23;20240;-75
2022/12/05 10:41:03;;;;;;;0.70;0.70;;;;;;;;;;6209973;23;20377;-75
2022/12/05 10:43:30;;;;;;;0.63;0.63;;;;;;;;;;6208804;22;20171;-76
2022/12/05 10:45:57;;;;;;;0.70;0.70;;;;;;;;;;6209458;23;20151;-75
2022/12/05 10:48:24;;;;;;;0.70;0.70;;;;;;;;;;6209275;23;20183;-75
2022/12/05 10:50:51;;;;;;;0.80;0.80;;;;;;;;;;6209366;23;20247;-75
2022/12/05 10:53:20;;;;;;;0.70;0.70;;;;;;;;;;6208621;22;20551;-76
2022/12/05 10:55:47;;;;;;;0.73;0.73;;;;;;;;;;6209684;23;20155;-76
2022/12/05 10:58:24;;;;;;;0.70;0.70;;;;;;;;;;6209772;23;20151;-75
2022/12/05 11:00:51;;;;;;;0.70;0.70;;;;;;;;;;6209803;23;20144;-76
2022/12/05 11:03:28;;;;;;;0.80;0.80;;;;;;;;;;6208977;22;20231;-75
2022/12/05 11:05:59;;;;;;;0.70;0.70;;;;;;;;;;6209639;23;20151;-75
2022/12/05 11:08:27;;;;;;;0.80;0.80;;;;;;;;;;6209565;23;20191;-75
2022/12/05 11:11:12;;;;;;;0.80;0.80;;;;;;;;;;6209408;23;20147;-75
2022/12/05 11:13:50;;;;;;;0.90;0.90;;;;;;;;;;6209432;22;20192;-75
2022/12/05 11:16:22;;;;;;;0.70;0.70;;;;;;;;;;6209617;23;20143;-75
2022/12/05 11:18:48;;;;;;;0.70;0.70;;;;;;;;;;6209612;23;20139;-75
2022/12/05 11:21:16;;;;;;;0.80;0.80;;;;;;;;;;6209722;23;20151;-75
2022/12/05 11:23:42;;;;;;;0.70;0.70;;;;;;;;;;6208999;22;20175;-75
2022/12/05 11:26:33;;;;;;;0.67;0.67;;;;;;;;;;6209832;23;20629;-75
2022/12/05 11:28:59;;;;;;;0.70;0.70;;;;;;;;;;6213945;23;20189;-75
2022/12/05 11:31:27;;;;;;;0.70;0.70;;;;;;;;;;6210401;23;20492;-75
2022/12/05 11:34:19;;;;;;;0.80;0.80;;;;;;;;;;6209345;22;20275;-75
2022/12/05 11:36:54;;;;;;;0.60;0.60;;;;;;;;;;6210335;23;20147;-75
2022/12/05 11:39:20;;;;;;;0.70;0.70;;;;;;;;;;6261126;22;20199;-80
2022/12/05 11:41:59;;;;;;;0.50;0.50;;;;;;;;;;6344784;22;20560;-80
2022/12/05 11:44:45;;;;;;;0.70;0.70;;;;;;;;;;6344713;22;20176;-82
2022/12/05 11:47:11;;;;;;;0.70;0.70;;;;;;;;;;6345149;22;20144;-82
2022/12/05 11:49:43;;;;;;;0.60;0.60;;;;;;;;;;6345203;22;20263;-81
2022/12/05 11:52:12;;;;;;;0.63;0.63;;;;;;;;;;6343931;22;20148;-81
2022/12/05 11:54:46;;;;;;;0.70;0.70;;;;;;;;;;6343554;22;20160;-78
2022/12/05 11:57:20;;;;;;;0.60;0.60;;;;;;;;;;6342628;22;20152;-80
2022/12/05 11:59:52;;;;;;;0.50;0.50;;;;;;;;;;6340950;22;20144;-80
2022/12/05 12:02:18;;;;;;;0.63;0.63;;;;;;;;;;6339473;22;20216;-80
2022/12/05 12:04:44;;;;;;;0.80;0.80;;;;;;;;;;6340861;22;20439;-80
2022/12/05 12:07:30;;;;;;;0.80;0.80;;;;;;;;;;6340615;22;20157;-79
2022/12/05 12:10:15;;;;;;;0.70;0.70;;;;;;;;;;6339546;22;20183;-79
2022/12/05 12:12:47;;;;;;;0.70;0.70;;;;;;;;;;6361159;22;20176;-80
2022/12/05 12:15:26;;;;;;;0.70;0.70;;;;;;;;;;6361854;22;20156;-79
2022/12/05 12:18:07;;;;;;;0.70;0.70;;;;;;;;;;6341292;22;20539;-78
2022/12/05 12:20:44;;;;;;;0.60;0.60;;;;;;;;;;6341078;22;20231;-79
2022/12/05 12:23:25;;;;;;;0.70;0.70;;;;;;;;;;6340974;22;20168;-80
2022/12/05 12:26:10;;;;;;;0.60;0.60;;;;;;;;;;6341684;22;20153;-79
2022/12/05 12:28:39;;;;;;;0.70;0.70;;;;;;;;;;6340216;22;20215;-79
2022/12/05 12:31:24;;;;;;;0.60;0.60;;;;;;;;;;6341503;22;20648;-79
2022/12/05 12:34:06;;;;;;;0.70;0.70;;;;;;;;;;6339662;22;20644;-78
2022/12/05 12:36:32;;;;;;;0.70;0.70;;;;;;;;;;6340705;22;20579;-79
2022/12/05 12:39:14;;;;;;;0.60;0.60;;;;;;;;;;6348249;22;20247;-78
2022/12/05 12:41:43;;;;;;;0.60;0.60;;;;;;;;;;6372238;22;20159;-78
2022/12/05 12:44:20;;;;;;;0.70;0.70;;;;;;;;;;6371258;22;20475;-79
2022/12/05 12:46:54;;;;;;;0.70;0.70;;;;;;;;;;6372274;22;20616;-79
2022/12/05 12:49:39;;;;;;;0.60;0.60;;;;;;;;;;6372475;22;20236;-81
2022/12/05 12:52:13;;;;;;;0.80;0.80;;;;;;;;;;6372015;22;20193;-79
2022/12/05 12:54:48;;;;;;;0.80;0.80;;;;;;;;;;6371106;22;20505;-79
2022/12/05 12:57:21;;;;;;;0.77;0.77;;;;;;;;;;6372003;22;20156;-79
2022/12/05 12:59:53;;;;;;;0.70;0.70;;;;;;;;;;6372432;22;20136;-79
2022/12/05 13:02:25;;;;;;;0.60;0.60;;;;;;;;;;6371820;22;20223;-81
2022/12/05 13:04:57;;;;;;;0.60;0.60;;;;;;;;;;6373092;22;20147;-80
2022/12/05 13:07:34;;;;;;;0.70;0.70;;;;;;;;;;6372619;22;20144;-79
2022/12/05 13:10:05;;;;;;;0.80;0.80;;;;;;;;;;6371148;22;20205;-78
2022/12/05 13:12:34;;;;;;;0.70;0.70;;;;;;;;;;6371671;22;20228;-80
2022/12/05 13:15:01;;;;;;;0.70;0.70;;;;;;;;;;6373325;22;20182;-80
2022/12/05 13:17:29;;;;;;;0.80;0.80;;;;;;;;;;6373571;22;20148;-78
2022/12/05 13:19:56;;;;;;;0.70;0.70;;;;;;;;;;6373444;22;20148;-80
2022/12/05 13:22:23;;;;;;;0.67;0.67;;;;;;;;;;6372367;22;20144;-81
2022/12/05 13:24:50;;;;;;;0.60;0.60;;;;;;;;;;6373688;22;20152;-80
2022/12/05 13:27:17;;;;;;;0.73;0.73;;;;;;;;;;6373599;22;20210;-79
2022/12/05 13:30:02;;;;;;;0.77;0.77;;;;;;;;;;6375974;22;20183;-80
2022/12/05 13:32:35;;;;;;;0.80;0.80;;;;;;;;;;6376279;22;20151;-79
2022/12/05 13:35:01;;;;;;;0.80;0.80;;;;;;;;;;6373811;22;20148;-79
2022/12/05 13:43:24;;;;;;;0.60;0.60;;;;;;;;;;6372580;22;20182;-80
2022/12/05 13:46:00;;;;;;;0.57;0.57;;;;;;;;;;6373802;22;20151;-80
2022/12/05 13:48:27;;;;;;;0.60;0.60;;;;;;;;;;6373592;22;20229;-80
2022/12/05 13:50:57;;;;;;;0.63;0.63;;;;;;;;;;6373626;22;20152;-80
2022/12/05 13:53:23;;;;;;;0.63;0.63;;;;;;;;;;6372829;22;20179;-80
2022/12/05 13:55:58;;;;;;;0.60;0.60;;;;;;;;;;6374067;22;20144;-80
2022/12/05 13:58:24;;;;;;;0.63;0.63;;;;;;;;;;6374349;22;20155;-80
2022/12/05 14:00:51;;;;;;;0.50;0.50;;;;;;;;;;6373210;22;20230;-80
2022/12/05 14:03:37;;;;;;;0.60;0.60;;;;;;;;;;6374805;22;20175;-79
2022/12/05 14:06:03;;;;;;;0.70;0.70;;;;;;;;;;6376563;22;20154;-79
2022/12/05 14:08:30;;;;;;;0.67;0.67;;;;;;;;;;6372702;22;20216;-78
2022/12/05 14:10:56;;;;;;;0.60;0.60;;;;;;;;;;6372811;22;20144;-79
2022/12/05 14:13:29;;;;;;;0.70;0.70;;;;;;;;;;6371820;22;20218;-78
2022/12/05 14:16:14;;;;;;;0.70;0.70;;;;;;;;;;6373331;22;20146;-80
2022/12/05 14:18:48;;;;;;;0.60;0.60;;;;;;;;;;6372136;22;20148;-79
2022/12/05 14:21:33;;;;;;;0.70;0.70;;;;;;;;;;6372797;22;20144;-78
2022/12/05 14:24:07;;;;;;;0.60;0.60;;;;;;;;;;6372270;22;20171;-80
2022/12/05 14:26:40;;;;;;;0.70;0.70;;;;;;;;;;6373634;22;20136;-79
2022/12/05 14:29:25;;;;;;;0.77;0.77;;;;;;;;;;6373079;22;20187;-81
2022/12/05 14:31:53;;;;;;;0.70;0.70;;;;;;;;;;6373317;22;20153;-78
2022/12/05 14:34:21;;;;;;;0.80;0.80;;;;;;;;;;6372834;22;20176;-79
2022/12/05 14:36:59;;;;;;;0.70;0.70;;;;;;;;;;6373249;22;20208;-79
2022/12/05 14:39:31;;;;;;;0.70;0.70;;;;;;;;;;6373147;22;20250;-81
2022/12/05 14:41:59;;;;;;;0.60;0.60;;;;;;;;;;6372752;22;20155;-80
2022/12/05 14:44:30;;;;;;;0.70;0.70;;;;;;;;;;6373269;22;20192;-80
2022/12/05 14:47:01;;;;;;;0.80;0.80;;;;;;;;;;6351560;22;20132;-78
2022/12/05 14:49:34;;;;;;;0.70;0.70;;;;;;;;;;6392895;22;20182;-80
2022/12/05 14:52:00;;;;;;;0.70;0.70;;;;;;;;;;6391831;22;20203;-83
2022/12/05 14:54:26;;;;;;;0.70;0.70;;;;;;;;;;6379389;22;20553;-80
2022/12/05 14:57:01;;;;;;;0.80;0.80;;;;;;;;;;6372084;22;20598;-80
2022/12/05 14:59:33;;;;;;;0.70;0.70;;;;;;;;;;6372746;22;20185;-78
2022/12/05 15:02:00;;;;;;;0.70;0.70;;;;;;;;;;6371820;22;20152;-80
2022/12/05 15:04:38;;;;;;;0.70;0.70;;;;;;;;;;6371349;22;20637;-78
2022/12/05 15:07:11;;;;;;;0.60;0.60;;;;;;;;;;6371897;22;20139;-78
2022/12/05 15:09:49;;;;;;;0.70;0.70;;;;;;;;;;6371433;22;20183;-79
2022/12/05 15:12:19;;;;;;;0.80;0.80;;;;;;;;;;6370844;22;20155;-79